Time,TemperatureF,DewpointF,PressureIn,WindDirection,WindDirectionDegrees,WindSpeedMPH,WindSpeedGustMPH,Humidity,HourlyPrecipIn,Conditions,Clouds,dailyrainin,SoftwareType,DateUTC
2013-03-23 00:09:00,51.6,45.3,29.90,South,172,0.0,7.0,79,0.00,,,0.00,Wunderground v.1.15,2013-03-23 07:09:00,
2013-03-23 00:19:00,51.3,44.7,29.89,South,172,0.0,7.0,78,0.00,,,0.00,Wunderground v.1.15,2013-03-23 07:19:00,
2013-03-23 00:29:00,51.1,44.5,29.89,South,172,0.0,7.0,78,0.00,,,0.00,Wunderground v.1.15,2013-03-23 07:29:00,
2013-03-23 00:39:00,51.3,44.7,29.90,South,171,0.0,7.0,78,0.00,,,0.00,Wunderground v.1.15,2013-03-23 07:39:00,
2013-03-23 00:49:00,51.3,44.7,29.90,South,172,1.0,7.0,78,0.00,,,0.00,Wunderground v.1.15,2013-03-23 07:49:00,
2013-03-23 00:59:00,51.3,44.7,29.90,South,171,1.0,1.0,78,0.00,,,0.00,Wunderground v.1.15,2013-03-23 07:59:00,
2013-03-23 01:09:00,50.4,42.1,29.90,South,170,1.0,1.0,73,0.00,,,0.00,Wunderground v.1.15,2013-03-23 08:09:00,
2013-03-23 01:19:00,49.9,40.5,29.91,South,170,0.0,5.0,70,0.00,,,0.00,Wunderground v.1.15,2013-03-23 08:19:00,
2013-03-23 01:29:00,49.8,40.0,29.91,South,170,0.0,1.0,69,0.00,,,0.00,Wunderground v.1.15,2013-03-23 08:29:00,
2013-03-23 01:39:00,49.8,40.0,29.91,South,170,0.0,3.0,69,0.00,,,0.00,Wunderground v.1.15,2013-03-23 08:39:00,
2013-03-23 01:49:00,49.5,39.4,29.91,SE,142,2.0,4.0,68,0.00,,,0.00,Wunderground v.1.15,2013-03-23 08:49:00,
2013-03-23 01:59:00,49.1,39.7,29.91,SE,142,3.0,3.0,70,0.00,,,0.00,Wunderground v.1.15,2013-03-23 08:59:00,
2013-03-23 02:09:00,48.3,39.7,29.90,NNE,32,3.0,4.0,72,0.00,,,0.00,Wunderground v.1.15,2013-03-23 09:09:00,
2013-03-23 02:19:00,47.3,39.4,29.91,NNE,32,2.0,2.0,74,0.00,,,0.00,Wunderground v.1.15,2013-03-23 09:19:00,
2013-03-23 02:29:00,47.3,39.1,29.91,NNE,32,1.0,1.0,73,0.00,,,0.00,Wunderground v.1.15,2013-03-23 09:29:00,
2013-03-23 02:39:00,47.1,38.9,29.91,NNE,32,0.0,4.0,73,0.00,,,0.00,Wunderground v.1.15,2013-03-23 09:39:00,
2013-03-23 02:49:00,47.1,38.9,29.91,NNE,32,0.0,2.0,73,0.00,,,0.00,Wunderground v.1.15,2013-03-23 09:49:00,
2013-03-23 02:59:00,47.1,38.5,29.91,NNE,32,1.0,3.0,72,0.00,,,0.00,Wunderground v.1.15,2013-03-23 09:59:00,
2013-03-23 03:09:00,47.3,37.6,29.91,NNE,32,2.0,4.0,69,0.00,,,0.00,Wunderground v.1.15,2013-03-23 10:09:00,
2013-03-23 03:19:00,47.6,36.4,29.90,NNE,32,2.0,2.0,65,0.00,,,0.00,Wunderground v.1.15,2013-03-23 10:19:00,
2013-03-23 03:29:00,47.4,33.8,29.90,NNE,32,1.0,1.0,59,0.00,,,0.00,Wunderground v.1.15,2013-03-23 10:29:00,
2013-03-23 03:39:00,47.4,32.5,29.90,NNE,32,2.0,3.0,56,0.00,,,0.00,Wunderground v.1.15,2013-03-23 10:39:00,
2013-03-23 03:49:00,47.3,31.5,29.90,NNE,32,1.0,5.0,54,0.00,,,0.00,Wunderground v.1.15,2013-03-23 10:49:00,
2013-03-23 03:59:00,47.1,32.2,29.90,NNE,32,2.0,4.0,56,0.00,,,0.00,Wunderground v.1.15,2013-03-23 10:59:00,
2013-03-23 04:09:00,46.7,33.1,29.90,NNE,32,3.0,3.0,59,0.00,,,0.00,Wunderground v.1.15,2013-03-23 11:09:00,
2013-03-23 04:19:00,45.5,34.0,29.90,NNE,32,1.0,5.0,64,0.00,,,0.00,Wunderground v.1.15,2013-03-23 11:19:00,
2013-03-23 04:29:00,44.9,34.2,29.90,NNE,32,1.0,5.0,66,0.00,,,0.00,Wunderground v.1.15,2013-03-23 11:29:00,
2013-03-23 04:39:00,44.6,33.6,29.90,NNE,32,1.0,1.0,65,0.00,,,0.00,Wunderground v.1.15,2013-03-23 11:39:00,
2013-03-23 04:49:00,44.2,33.2,29.90,NNE,32,0.0,4.0,65,0.00,,,0.00,Wunderground v.1.15,2013-03-23 11:49:00,
2013-03-23 04:59:00,43.9,33.3,29.90,NNE,32,0.0,2.0,66,0.00,,,0.00,Wunderground v.1.15,2013-03-23 11:59:00,
2013-03-23 05:09:00,43.9,32.9,29.91,NNE,32,2.0,2.0,65,0.00,,,0.00,Wunderground v.1.15,2013-03-23 12:09:00,
2013-03-23 05:19:00,44.1,32.7,29.91,NNE,21,2.0,2.0,64,0.00,,,0.00,Wunderground v.1.15,2013-03-23 12:19:00,
2013-03-23 05:29:00,43.9,31.7,29.91,NNE,22,2.0,10.0,62,0.00,,,0.00,Wunderground v.1.15,2013-03-23 12:29:00,
2013-03-23 05:39:00,44.1,31.5,29.92,NNE,25,3.0,5.0,61,0.00,,,0.00,Wunderground v.1.15,2013-03-23 12:39:00,
2013-03-23 05:49:00,43.9,30.5,29.92,NE,36,3.0,9.0,59,0.00,,,0.00,Wunderground v.1.15,2013-03-23 12:49:00,
2013-03-23 05:59:00,43.6,30.6,29.92,NE,35,3.0,3.0,60,0.00,,,0.00,Wunderground v.1.15,2013-03-23 12:59:00,
2013-03-23 06:09:00,43.3,29.9,29.93,NE,35,3.0,4.0,59,0.00,,,0.00,Wunderground v.1.15,2013-03-23 13:09:00,
2013-03-23 06:19:00,43.8,29.1,29.93,NE,35,3.0,6.0,56,0.00,,,0.00,Wunderground v.1.15,2013-03-23 13:19:00,
2013-03-23 06:29:00,44.1,29.4,29.93,NE,34,4.0,4.0,56,0.00,,,0.00,Wunderground v.1.15,2013-03-23 13:29:00,
2013-03-23 06:39:00,43.9,30.1,29.94,NE,34,2.0,9.0,58,0.00,,,0.00,Wunderground v.1.15,2013-03-23 13:39:00,
2013-03-23 06:49:00,43.5,30.9,29.94,NE,34,1.0,1.0,61,0.00,,,0.00,Wunderground v.1.15,2013-03-23 13:49:00,
2013-03-23 06:59:00,43.1,31.0,29.94,NE,34,0.0,3.0,62,0.00,,,0.00,Wunderground v.1.15,2013-03-23 13:59:00,
2013-03-23 07:09:00,43.2,31.1,29.95,NE,34,1.0,3.0,62,0.00,,,0.00,Wunderground v.1.15,2013-03-23 14:09:00,
2013-03-23 07:19:00,43.6,30.6,29.96,NE,34,2.0,2.0,60,0.00,,,0.00,Wunderground v.1.15,2013-03-23 14:19:00,
2013-03-23 07:29:00,43.8,31.2,29.96,NE,34,3.0,4.0,61,0.00,,,0.00,Wunderground v.1.15,2013-03-23 14:29:00,
2013-03-23 07:39:00,43.9,31.7,29.96,NE,34,1.0,1.0,62,0.00,,,0.00,Wunderground v.1.15,2013-03-23 14:39:00,
2013-03-23 07:49:00,45.1,32.4,29.96,NE,34,1.0,3.0,61,0.00,,,0.00,Wunderground v.1.15,2013-03-23 14:49:00,
2013-03-23 07:59:00,46.4,33.7,29.96,NE,34,3.0,7.0,61,0.00,,,0.00,Wunderground v.1.15,2013-03-23 14:59:00,
2013-03-23 08:09:00,48.0,34.3,29.97,NE,34,2.0,2.0,59,0.00,,,0.00,Wunderground v.1.15,2013-03-23 15:09:00,
2013-03-23 08:19:00,48.5,34.8,29.97,NE,34,2.0,2.0,59,0.00,,,0.00,Wunderground v.1.15,2013-03-23 15:19:00,
2013-03-23 08:29:00,49.1,34.9,29.97,NE,34,1.0,1.0,58,0.00,,,0.00,Wunderground v.1.15,2013-03-23 15:29:00,
2013-03-23 08:39:00,51.0,34.0,29.98,NE,34,1.0,3.0,52,0.00,,,0.00,Wunderground v.1.15,2013-03-23 15:39:00,
2013-03-23 08:49:00,52.5,34.4,29.99,NE,34,1.0,1.0,50,0.00,,,0.00,Wunderground v.1.15,2013-03-23 15:49:00,
2013-03-23 08:59:00,55.4,34.4,29.99,NE,34,0.0,3.0,45,0.00,,,0.00,Wunderground v.1.15,2013-03-23 15:59:00,
2013-03-23 09:09:00,56.5,34.8,29.99,NE,34,0.0,1.0,44,0.00,,,0.00,Wunderground v.1.15,2013-03-23 16:09:00,
2013-03-23 09:19:00,57.3,33.2,30.00,NE,34,0.0,1.0,40,0.00,,,0.00,Wunderground v.1.15,2013-03-23 16:19:00,
2013-03-23 09:29:00,59.0,33.4,30.00,NE,34,0.0,3.0,38,0.00,,,0.00,Wunderground v.1.15,2013-03-23 16:29:00,
2013-03-23 09:39:00,60.4,35.9,29.99,NE,34,1.0,1.0,40,0.00,,,0.00,Wunderground v.1.15,2013-03-23 16:39:00,
2013-03-23 09:49:00,61.2,37.9,29.99,NE,34,0.0,3.0,42,0.00,,,0.00,Wunderground v.1.15,2013-03-23 16:49:00,
2013-03-23 09:59:00,62.3,40.1,29.99,NE,34,0.0,3.0,44,0.00,,,0.00,Wunderground v.1.15,2013-03-23 16:59:00,
2013-03-23 10:09:00,62.9,39.4,29.99,NE,34,1.0,1.0,42,0.00,,,0.00,Wunderground v.1.15,2013-03-23 17:09:00,
2013-03-23 10:19:00,63.2,40.3,29.99,NE,34,1.0,1.0,43,0.00,,,0.00,Wunderground v.1.15,2013-03-23 17:19:00,
2013-03-23 10:29:00,63.4,42.8,29.99,WNW,287,3.0,5.0,47,0.00,,,0.00,Wunderground v.1.15,2013-03-23 17:29:00,
2013-03-23 10:39:00,62.7,42.7,29.99,SSW,213,3.0,5.0,48,0.00,,,0.00,Wunderground v.1.15,2013-03-23 17:39:00,
2013-03-23 10:49:00,63.2,45.3,30.00,SSW,211,4.0,4.0,52,0.00,,,0.00,Wunderground v.1.15,2013-03-23 17:49:00,
2013-03-23 10:59:00,64.0,46.0,30.00,SW,228,5.0,10.0,52,0.00,,,0.00,Wunderground v.1.15,2013-03-23 17:59:00,
2013-03-23 11:09:00,64.7,50.5,30.00,SW,214,8.0,8.0,60,0.00,,,0.00,Wunderground v.1.15,2013-03-23 18:09:00,
2013-03-23 11:19:00,64.8,50.1,30.01,SSW,209,7.0,9.0,59,0.00,,,0.00,Wunderground v.1.15,2013-03-23 18:19:00,
2013-03-23 11:29:00,64.5,50.3,30.01,SSW,202,9.0,12.0,60,0.00,,,0.00,Wunderground v.1.15,2013-03-23 18:29:00,
2013-03-23 11:39:00,64.2,50.9,30.01,South,180,9.0,9.0,62,0.00,,,0.00,Wunderground v.1.15,2013-03-23 18:39:00,
2013-03-23 11:49:00,64.0,50.3,30.01,SSW,202,9.0,17.0,61,0.00,,,0.00,Wunderground v.1.15,2013-03-23 18:49:00,
2013-03-23 11:59:00,63.9,50.6,30.01,WSW,240,8.0,8.0,62,0.00,,,0.00,Wunderground v.1.15,2013-03-23 18:59:00,
2013-03-23 12:09:00,64.5,51.2,30.02,WSW,238,9.0,16.0,62,0.00,,,0.00,Wunderground v.1.15,2013-03-23 19:09:00,
2013-03-23 12:19:00,64.8,51.0,30.02,SSW,205,9.0,9.0,61,0.00,,,0.00,Wunderground v.1.15,2013-03-23 19:19:00,
2013-03-23 12:29:00,64.0,49.8,30.02,South,185,10.0,11.0,60,0.00,,,0.00,Wunderground v.1.15,2013-03-23 19:29:00,
2013-03-23 12:39:00,64.2,50.9,30.02,South,184,10.0,15.0,62,0.00,,,0.00,Wunderground v.1.15,2013-03-23 19:39:00,
2013-03-23 12:49:00,64.3,49.2,30.01,South,189,10.0,10.0,58,0.00,,,0.00,Wunderground v.1.15,2013-03-23 19:49:00,
2013-03-23 12:59:00,64.2,50.0,30.01,South,186,8.0,18.0,60,0.00,,,0.00,Wunderground v.1.15,2013-03-23 19:59:00,
2013-03-23 13:09:00,64.2,50.0,30.00,SSW,213,8.0,8.0,60,0.00,,,0.00,Wunderground v.1.15,2013-03-23 20:09:00,
2013-03-23 13:19:00,64.3,49.2,30.00,SSW,198,7.0,16.0,58,0.00,,,0.00,Wunderground v.1.15,2013-03-23 20:19:00,
2013-03-23 13:29:00,64.8,49.7,30.00,SSW,194,9.0,9.0,58,0.00,,,0.00,Wunderground v.1.15,2013-03-23 20:29:00,
2013-03-23 13:39:00,65.5,49.9,29.99,SSW,213,8.0,14.0,57,0.00,,,0.00,Wunderground v.1.15,2013-03-23 20:39:00,
2013-03-23 13:49:00,65.8,50.1,29.99,SSW,196,8.0,14.0,57,0.00,,,0.00,Wunderground v.1.15,2013-03-23 20:49:00,
2013-03-23 13:59:00,66.6,49.9,29.99,SSW,207,8.0,14.0,55,0.00,,,0.00,Wunderground v.1.15,2013-03-23 20:59:00,
2013-03-23 14:09:00,66.0,49.4,29.98,SSW,209,8.0,14.0,55,0.00,,,0.00,Wunderground v.1.15,2013-03-23 21:09:00,
2013-03-23 14:19:00,66.6,48.4,29.98,SSW,211,8.0,8.0,52,0.00,,,0.00,Wunderground v.1.15,2013-03-23 21:19:00,
2013-03-23 14:29:00,66.6,49.9,29.98,SW,215,8.0,8.0,55,0.00,,,0.00,Wunderground v.1.15,2013-03-23 21:29:00,
2013-03-23 14:39:00,65.6,49.0,29.98,SSW,212,9.0,15.0,55,0.00,,,0.00,Wunderground v.1.15,2013-03-23 21:39:00,
2013-03-23 14:49:00,65.3,50.1,29.98,SSW,207,9.0,9.0,58,0.00,,,0.00,Wunderground v.1.15,2013-03-23 21:49:00,
2013-03-23 14:59:00,65.5,49.9,29.98,WSW,238,9.0,15.0,57,0.00,,,0.00,Wunderground v.1.15,2013-03-23 21:59:00,
2013-03-23 15:09:00,65.8,50.1,29.98,South,187,8.0,15.0,57,0.00,,,0.00,Wunderground v.1.15,2013-03-23 22:09:00,
2013-03-23 15:19:00,66.1,49.9,29.97,North,360,7.0,15.0,56,0.00,,,0.00,Wunderground v.1.15,2013-03-23 22:19:00,
2013-03-23 15:29:00,65.2,49.6,29.97,SSW,210,8.0,8.0,57,0.00,,,0.00,Wunderground v.1.15,2013-03-23 22:29:00,
2013-03-23 15:39:00,66.3,50.1,29.97,West,275,8.0,8.0,56,0.00,,,0.00,Wunderground v.1.15,2013-03-23 22:39:00,
2013-03-23 15:49:00,66.6,49.9,29.96,WNW,288,6.0,6.0,55,0.00,,,0.00,Wunderground v.1.15,2013-03-23 22:49:00,
2013-03-23 15:59:00,66.3,50.6,29.96,WSW,240,5.0,13.0,57,0.00,,,0.00,Wunderground v.1.15,2013-03-23 22:59:00,
2013-03-23 16:09:00,66.0,50.3,29.96,WSW,239,7.0,11.0,57,0.00,,,0.00,Wunderground v.1.15,2013-03-23 23:09:00,
2013-03-23 16:19:00,66.0,50.8,29.95,WSW,244,6.0,6.0,58,0.00,,,0.00,Wunderground v.1.15,2013-03-23 23:19:00,
2013-03-23 16:29:00,65.5,50.8,29.95,SSW,211,6.0,13.0,59,0.00,,,0.00,Wunderground v.1.15,2013-03-23 23:29:00,
2013-03-23 16:39:00,65.2,51.0,29.95,SSW,198,7.0,7.0,60,0.00,,,0.00,Wunderground v.1.15,2013-03-23 23:39:00,
2013-03-23 16:49:00,63.4,50.6,29.96,WSW,245,8.0,8.0,63,0.00,,,0.00,Wunderground v.1.15,2013-03-23 23:49:00,
2013-03-23 16:59:00,62.1,51.0,29.96,WSW,240,6.0,6.0,67,0.00,,,0.00,Wunderground v.1.15,2013-03-23 23:59:00,
2013-03-23 17:09:00,61.5,51.2,29.96,WSW,250,6.0,6.0,69,0.00,,,0.00,Wunderground v.1.15,2013-03-24 00:09:00,
2013-03-23 17:19:00,61.6,51.3,29.96,SW,235,5.0,15.0,69,0.00,,,0.00,Wunderground v.1.15,2013-03-24 00:19:00,
2013-03-23 17:29:00,61.6,51.7,29.96,West,266,5.0,5.0,70,0.00,,,0.00,Wunderground v.1.15,2013-03-24 00:29:00,
2013-03-23 17:39:00,61.5,51.2,29.96,SW,232,5.0,5.0,69,0.00,,,0.00,Wunderground v.1.15,2013-03-24 00:39:00,
2013-03-23 17:49:00,61.5,51.2,29.96,West,265,4.0,10.0,69,0.00,,,0.00,Wunderground v.1.15,2013-03-24 00:49:00,
2013-03-23 17:59:00,61.3,49.8,29.96,WSW,252,3.0,3.0,66,0.00,,,0.00,Wunderground v.1.15,2013-03-24 00:59:00,
2013-03-23 18:09:00,61.3,49.4,29.96,WNW,284,4.0,4.0,65,0.00,,,0.00,Wunderground v.1.15,2013-03-24 01:09:00,
2013-03-23 18:19:00,60.9,48.2,29.96,WSW,248,4.0,10.0,63,0.00,,,0.00,Wunderground v.1.15,2013-03-24 01:19:00,
2013-03-23 18:29:00,60.4,48.6,29.96,West,263,4.0,4.0,65,0.00,,,0.00,Wunderground v.1.15,2013-03-24 01:29:00,
2013-03-23 18:39:00,60.2,49.6,29.96,West,263,3.0,7.0,68,0.00,,,0.00,Wunderground v.1.15,2013-03-24 01:39:00,
2013-03-23 18:49:00,59.8,49.6,29.96,West,263,3.0,10.0,69,0.00,,,0.00,Wunderground v.1.15,2013-03-24 01:49:00,
2013-03-23 18:59:00,59.8,49.6,29.96,West,263,3.0,3.0,69,0.00,,,0.00,Wunderground v.1.15,2013-03-24 01:59:00,
2013-03-23 19:09:00,59.5,48.9,29.96,West,263,2.0,5.0,68,0.00,,,0.00,Wunderground v.1.15,2013-03-24 02:09:00,
2013-03-23 19:19:00,59.0,48.1,29.97,West,263,1.0,5.0,67,0.00,,,0.00,Wunderground v.1.15,2013-03-24 02:19:00,
2013-03-23 19:29:00,58.6,48.1,29.97,West,263,2.0,4.0,68,0.00,,,0.00,Wunderground v.1.15,2013-03-24 02:29:00,
2013-03-23 19:39:00,58.1,48.0,29.96,West,263,1.0,4.0,69,0.00,,,0.00,Wunderground v.1.15,2013-03-24 02:39:00,
2013-03-23 19:49:00,58.1,49.1,29.97,West,263,2.0,4.0,72,0.00,,,0.00,Wunderground v.1.15,2013-03-24 02:49:00,
2013-03-23 19:59:00,58.1,50.2,29.97,West,263,2.0,4.0,75,0.00,,,0.00,Wunderground v.1.15,2013-03-24 02:59:00,
2013-03-23 20:09:00,58.0,50.8,29.97,West,263,2.0,2.0,77,0.00,,,0.00,Wunderground v.1.15,2013-03-24 03:09:00,
2013-03-23 20:19:00,57.6,51.1,29.97,West,263,1.0,1.0,79,0.00,,,0.00,Wunderground v.1.15,2013-03-24 03:19:00,
2013-03-23 20:29:00,57.2,51.4,29.97,West,263,0.0,3.0,81,0.00,,,0.00,Wunderground v.1.15,2013-03-24 03:29:00,
2013-03-23 20:39:00,57.2,51.8,29.97,West,263,0.0,1.0,82,0.00,,,0.00,Wunderground v.1.15,2013-03-24 03:39:00,
2013-03-23 20:49:00,57.0,51.9,29.97,West,263,0.0,4.0,83,0.00,,,0.00,Wunderground v.1.15,2013-03-24 03:49:00,
2013-03-23 20:59:00,56.7,51.6,29.97,West,263,0.0,4.0,83,0.00,,,0.00,Wunderground v.1.15,2013-03-24 03:59:00,
2013-03-23 21:09:00,56.3,51.2,29.98,West,263,1.0,4.0,83,0.00,,,0.00,Wunderground v.1.15,2013-03-24 04:09:00,
2013-03-23 21:19:00,55.7,50.6,29.98,West,263,2.0,2.0,83,0.00,,,0.00,Wunderground v.1.15,2013-03-24 04:19:00,
2013-03-23 21:29:00,55.4,50.3,29.98,West,263,1.0,3.0,83,0.00,,,0.00,Wunderground v.1.15,2013-03-24 04:29:00,
2013-03-23 21:39:00,55.1,50.0,29.99,West,263,0.0,3.0,83,0.00,,,0.00,Wunderground v.1.15,2013-03-24 04:39:00,
2013-03-23 21:49:00,54.8,49.7,29.99,West,263,0.0,2.0,83,0.00,,,0.00,Wunderground v.1.15,2013-03-24 04:49:00,
2013-03-23 21:59:00,55.0,50.3,29.99,West,263,2.0,2.0,84,0.00,,,0.00,Wunderground v.1.15,2013-03-24 04:59:00,
2013-03-23 22:09:00,54.5,49.8,30.00,West,273,1.0,3.0,84,0.00,,,0.00,Wunderground v.1.15,2013-03-24 05:09:00,
2013-03-23 22:19:00,54.1,49.4,30.00,West,281,2.0,2.0,84,0.00,,,0.00,Wunderground v.1.15,2013-03-24 05:19:00,
2013-03-23 22:29:00,53.9,49.2,30.00,West,281,2.0,3.0,84,0.00,,,0.00,Wunderground v.1.15,2013-03-24 05:29:00,
2013-03-23 22:39:00,53.6,49.2,30.00,WNW,290,1.0,1.0,85,0.00,,,0.00,Wunderground v.1.15,2013-03-24 05:39:00,
2013-03-23 22:49:00,53.2,48.8,29.99,WNW,290,0.0,2.0,85,0.00,,,0.00,Wunderground v.1.15,2013-03-24 05:49:00,
2013-03-23 22:59:00,52.8,48.1,29.99,WNW,293,1.0,2.0,84,0.00,,,0.00,Wunderground v.1.15,2013-03-24 05:59:00,
2013-03-23 23:09:00,52.5,47.8,29.99,WNW,300,3.0,4.0,84,0.00,,,0.00,Wunderground v.1.15,2013-03-24 06:09:00,
2013-03-23 23:19:00,52.2,47.5,29.99,NW,313,3.0,4.0,84,0.00,,,0.00,Wunderground v.1.15,2013-03-24 06:19:00,
2013-03-23 23:29:00,51.7,47.0,29.99,NW,313,1.0,1.0,84,0.00,,,0.00,Wunderground v.1.15,2013-03-24 06:29:00,
2013-03-23 23:39:00,51.4,46.7,29.99,North,350,2.0,4.0,84,0.00,,,0.00,Wunderground v.1.15,2013-03-24 06:39:00,
2013-03-23 23:49:00,51.1,46.4,29.99,North,350,2.0,2.0,84,0.00,,,0.00,Wunderground v.1.15,2013-03-24 06:49:00,
2013-03-23 23:59:00,50.8,46.1,29.99,North,350,0.0,4.0,84,0.00,,,0.00,Wunderground v.1.15,2013-03-24 06:59:00,